SANT/TUC METAR and TAF weather

Enter ICAO airport designator
Station Type Date Time Source
SANT METAR 2022/01/26 20:00 UTC NOAA

SANT 262000Z 23015KT 6000 TSRA BKN005 BKN025 FEW050CB 22/21 Q1012 RMK PP003


Station Type Date Time Source
SANT Decoded METAR 2022/01/26 20:00 UTC NOAA

Tucuman Aerodrome, Argentina (SANT) 26-51S 065-06W 450M
Jan 26, 2022 - 03:00 PM EST / 2022.01.26 2000 UTC
Wind: from the SW (230 degrees) at 17 MPH (15 KT):0
Visibility: 3 mile(s):0
Sky conditions: mostly cloudy
Weather: rain with thunder; Cumulonimbus clouds observed
Temperature: 71 F (22 C)
Dew Point: 69 F (21 C)
Relative Humidity: 94%
Pressure (altimeter): 29.88 in. Hg (1012 hPa)
ob: SANT 262000Z 23015KT 6000 TSRA BKN005 BKN025 FEW050CB 22/21 Q1012 RMK PP003
cycle: 20

Station Type Date Time Source
SANT TAF 2022/01/26 18:57 UTC NOAA

TAF SANT 261700Z 2618/2718 23015KT 5000 TSRA BKN025 FEW040CB TX22/2618Z TN21/2709Z
BECMG 2620/2623 18010KT 3000 +TSRA BKN010 SCT040CB OVC040

Example: see airport list